Time;durP1;ratioP1;P1;durP2;ratioP2;P2;SDS_P1;SDS_P2;PMS_P1;PMS_P2;Temp;Humidity;BMP_temperature;BMP_pressure;BME280_temperature;BME280_humidity;BME280_pressure;Samples;Min_cycle;Max_cycle;Signal;HPM_P1;HPM_P2
2023/11/02 00:01:07;;;;;;;1.20;1.20;;;;;;;13.96;77.15;96738.97;4985142;28;20050;-66
2023/11/02 00:03:37;;;;;;;1.20;1.20;;;;;;;13.95;76.98;96715.06;4985545;28;20453;-66
2023/11/02 00:06:04;;;;;;;1.02;1.02;;;;;;;14.08;76.33;96716.25;4985542;28;20506;-65
2023/11/02 00:08:34;;;;;;;1.20;1.20;;;;;;;14.21;75.84;96717.44;4985120;28;20548;-66
2023/11/02 00:11:06;;;;;;;1.10;1.10;;;;;;;13.93;76.12;96711.88;4985132;28;20050;-66
2023/11/02 00:13:33;;;;;;;1.20;1.20;;;;;;;13.81;75.72;96704.75;4985177;28;20058;-66
2023/11/02 00:16:02;;;;;;;1.20;1.20;;;;;;;13.38;76.07;96645.56;4985010;28;20069;-66
2023/11/02 00:18:31;;;;;;;1.10;1.10;;;;;;;13.63;76.42;96703.97;5000072;28;20069;-65
2023/11/02 00:20:58;;;;;;;1.15;1.15;;;;;;;13.81;75.96;96693.63;4984903;28;20116;-66
2023/11/02 00:23:38;;;;;;;1.10;1.10;;;;;;;13.67;76.45;96711.13;4985405;28;20053;-66
2023/11/02 00:26:06;;;;;;;1.20;1.20;;;;;;;13.26;76.54;96643.16;4984571;28;20140;-64
2023/11/02 00:28:32;;;;;;;1.27;1.27;;;;;;;13.87;75.59;96702.34;4999650;28;20138;-66
2023/11/02 00:31:00;;;;;;;1.10;1.10;;;;;;;13.83;75.86;96696.78;4984950;28;20054;-65
2023/11/02 00:33:28;;;;;;;1.20;1.20;;;;;;;13.85;76.07;96696.41;5003079;28;20428;-65
2023/11/02 00:35:55;;;;;;;1.10;1.10;;;;;;;13.96;76.11;96699.97;5002597;28;20046;-66
2023/11/02 00:38:26;;;;;;;1.08;1.08;;;;;;;14.00;76.36;96698.78;5004198;28;20574;-66
2023/11/02 00:40:57;;;;;;;1.20;1.20;;;;;;;13.84;77.02;96676.13;5003948;28;20115;-65
2023/11/02 00:43:25;;;;;;;1.20;1.20;;;;;;;13.99;77.38;96671.31;5004262;28;20057;-66
2023/11/02 00:45:52;;;;;;;1.20;1.20;;;;;;;13.99;77.74;96682.47;5004650;28;20072;-66
2023/11/02 00:48:21;;;;;;;1.10;1.10;;;;;;;13.99;77.92;96683.25;5004825;28;20045;-57
2023/11/02 00:50:59;;;;;;;1.20;1.20;;;;;;;14.04;77.97;96679.25;5004607;28;20497;-66
2023/11/02 00:53:26;;;;;;;1.20;1.20;;;;;;;14.11;77.33;96673.66;5004281;28;20053;-66
2023/11/02 00:55:53;;;;;;;1.20;1.20;;;;;;;13.88;77.57;96649.06;5004489;28;20060;-58
2023/11/02 00:58:30;;;;;;;1.20;1.20;;;;;;;14.10;77.80;96672.09;5004395;28;20068;-57
2023/11/02 01:00:57;;;;;;;1.30;1.30;;;;;;;14.04;77.90;96679.25;5003961;28;20533;-58
2023/11/02 01:03:25;;;;;;;1.30;1.30;;;;;;;13.81;78.16;96657.44;5004430;28;20141;-59
2023/11/02 01:05:52;;;;;;;1.23;1.23;;;;;;;14.00;78.37;96672.91;5004185;28;20100;-58
2023/11/02 01:08:28;;;;;;;1.02;1.02;;;;;;;14.00;78.13;96676.50;5004147;28;20054;-56
2023/11/02 01:10:55;;;;;;;1.30;1.30;;;;;;;14.01;77.25;96653.00;5004252;28;20058;-58
2023/11/02 01:13:22;;;;;;;1.20;1.20;;;;;;;14.13;77.10;96665.72;5004423;28;20061;-56
2023/11/02 01:16:08;;;;;;;1.27;1.27;;;;;;;14.14;77.43;96667.28;5002167;28;20612;-57
2023/11/02 01:18:39;;;;;;;1.20;1.20;;;;;;;14.14;77.58;96667.28;5003820;28;20054;-58
2023/11/02 01:21:07;;;;;;;1.20;1.20;;;;;;;14.11;77.58;96656.97;5003717;28;20152;-55
2023/11/02 01:23:35;;;;;;;1.00;1.00;;;;;;;14.02;77.42;96645.44;5003982;28;20120;-64
2023/11/02 01:26:06;;;;;;;1.20;1.20;;;;;;;14.18;77.29;96656.94;5003428;28;20064;-65
2023/11/02 01:28:59;;;;;;;1.10;1.10;;;;;;;14.18;77.57;96665.31;5003784;28;20054;-63
2023/11/02 01:31:26;;;;;;;1.20;1.20;;;;;;;14.12;77.24;96641.81;5002650;28;20045;-65
2023/11/02 01:34:02;;;;;;;1.20;1.20;;;;;;;14.27;77.34;96658.13;5004015;28;20053;-65
2023/11/02 01:36:36;;;;;;;1.13;1.13;;;;;;;14.25;77.73;96662.50;5003735;28;20143;-58
2023/11/02 01:39:15;;;;;;;1.17;1.17;;;;;;;14.28;77.46;96653.34;5004051;28;20056;-56
2023/11/02 01:41:47;;;;;;;1.00;1.00;;;;;;;14.16;77.24;96637.84;4988254;28;20050;-65
2023/11/02 01:44:36;;;;;;;1.13;1.13;;;;;;;13.96;77.31;96613.66;4987862;28;20065;-65
2023/11/02 01:47:20;;;;;;;1.20;1.20;;;;;;;14.19;77.72;96669.66;4988340;28;20117;-65
2023/11/02 01:50:06;;;;;;;;;;;;;;;14.19;78.03;96664.09;4988258;28;20437;-65
2023/11/02 01:53:27;;;;;;;1.30;1.30;;;;;;;13.86;80.73;96647.88;5002758;28;19992;-64
2023/11/02 01:55:55;;;;;;;1.10;1.10;;;;;;;13.42;84.33;96640.78;4946165;29;20359;-63
2023/11/02 01:58:28;;;;;;;1.17;1.17;;;;;;;13.46;84.43;96643.56;4984849;28;20265;-64
2023/11/02 02:01:40;;;;;;;1.13;1.13;;;;;;;13.29;85.40;96650.69;4987544;28;20560;-56
2023/11/02 02:04:44;;;;;;;1.00;1.00;;;;;;;12.95;87.22;96646.69;4987598;28;20069;-56
2023/11/02 02:07:20;;;;;;;1.00;1.00;;;;;;;12.80;88.80;96638.72;4987775;28;20103;-56
2023/11/02 02:09:59;;;;;;;1.00;1.00;;;;;;;12.72;91.91;96637.94;4987130;28;20324;-62
2023/11/02 02:12:34;;;;;;;0.90;0.90;;;;;;;12.77;90.46;96645.06;4987316;28;20064;-63
2023/11/02 02:15:18;;;;;;;0.93;0.93;;;;;;;12.81;90.61;96641.13;4987696;28;20050;-63
2023/11/02 02:17:58;;;;;;;0.90;0.90;;;;;;;12.86;90.72;96640.72;4987158;28;20144;-63
2023/11/02 02:20:31;;;;;;;1.00;1.00;;;;;;;13.02;91.05;96634.81;4987394;28;20510;-63
2023/11/02 02:23:05;;;;;;;0.98;0.98;;;;;;;12.67;91.33;96582.72;4987331;28;20062;-57
2023/11/02 02:25:52;;;;;;;1.00;1.00;;;;;;;12.88;93.40;96627.22;4987125;28;20498;-56
2023/11/02 02:28:37;;;;;;;1.00;1.00;;;;;;;13.06;93.37;96635.59;4987166;28;20054;-56
2023/11/02 02:31:23;;;;;;;1.00;1.00;;;;;;;13.19;93.21;96629.25;4987190;28;20540;-55
2023/11/02 02:34:22;;;;;;;1.00;1.00;;;;;;;13.36;92.51;96617.34;4987046;28;20518;-57
2023/11/02 02:37:15;;;;;;;1.00;1.00;;;;;;;13.51;91.70;96613.31;4985670;28;20054;-56
2023/11/02 02:39:45;;;;;;;1.02;1.02;;;;;;;13.59;90.81;96603.78;4987229;28;20058;-56
2023/11/02 02:42:15;;;;;;;1.10;1.10;;;;;;;13.74;89.40;96592.63;4986993;28;20061;-56
2023/11/02 02:44:46;;;;;;;1.13;1.13;;;;;;;13.78;88.52;96579.50;4986486;28;20112;-56
2023/11/02 02:47:16;;;;;;;1.20;1.20;;;;;;;13.97;88.04;96590.97;4986644;28;20085;-57
2023/11/02 02:49:51;;;;;;;1.25;1.25;;;;;;;13.97;87.29;96584.59;4985278;28;20054;-57
2023/11/02 02:52:24;;;;;;;1.30;1.30;;;;;;;14.18;87.61;96590.88;4985600;28;20117;-57
2023/11/02 02:54:53;;;;;;;1.10;1.10;;;;;;;14.28;87.12;96594.84;4985597;28;20089;-58
2023/11/02 02:57:23;;;;;;;1.10;1.10;;;;;;;14.42;85.38;96586.41;4986877;28;20058;-56
2023/11/02 02:59:53;;;;;;;1.00;1.00;;;;;;;14.54;83.97;96581.16;4986682;28;20132;-57
2023/11/02 03:02:25;;;;;;;1.20;1.20;;;;;;;14.25;83.34;96528.78;4986792;28;20141;-57
2023/11/02 03:04:54;;;;;;;1.20;1.20;;;;;;;14.62;83.25;96579.13;4986470;28;20150;-63
2023/11/02 03:07:25;;;;;;;1.20;1.20;;;;;;;14.60;83.14;96584.31;4985081;28;20585;-64
2023/11/02 03:09:57;;;;;;;1.20;1.20;;;;;;;14.74;82.53;96568.31;4985121;28;20057;-64
2023/11/02 03:12:30;;;;;;;1.30;1.30;;;;;;;14.39;81.90;96506.41;4986940;28;20527;-65
2023/11/02 03:15:04;;;;;;;1.27;1.27;;;;;;;14.65;82.87;96564.38;4986374;28;20060;-63
2023/11/02 03:18:02;;;;;;;1.20;1.20;;;;;;;14.72;82.66;96558.75;4986515;28;20054;-64
2023/11/02 03:20:29;;;;;;;1.20;1.20;;;;;;;13.93;83.06;96450.16;4986558;28;20086;-64
2023/11/02 03:23:19;;;;;;;1.30;1.30;;;;;;;14.71;84.22;96557.16;4986232;28;20064;-64
2023/11/02 03:26:04;;;;;;;1.20;1.20;;;;;;;14.43;85.74;96557.34;4985997;28;20512;-56
2023/11/02 03:28:53;;;;;;;1.10;1.10;;;;;;;14.56;85.64;96539.75;4986487;28;20084;-64
2023/11/02 03:31:44;;;;;;;1.23;1.23;;;;;;;14.57;85.90;96548.91;4986153;28;20073;-57
2023/11/02 03:34:46;;;;;;;1.13;1.13;;;;;;;14.28;86.22;96488.97;4985903;28;20082;-58
2023/11/02 03:37:23;;;;;;;1.20;1.20;;;;;;;14.06;89.14;96534.81;4983155;28;20042;-55
2023/11/02 03:40:09;;;;;;;1.20;1.20;;;;;;;14.40;88.86;96531.06;4984545;28;20065;-56
2023/11/02 03:42:54;;;;;;;1.10;1.10;;;;;;;14.54;87.79;96519.84;4984442;28;20093;-56
2023/11/02 03:45:58;;;;;;;1.10;1.10;;;;;;;14.51;88.71;96522.66;4985864;28;20054;-57
2023/11/02 03:48:45;;;;;;;1.17;1.17;;;;;;;14.52;88.90;96521.47;4985754;28;20062;-58
2023/11/02 03:51:17;;;;;;;1.38;1.38;;;;;;;14.53;88.88;96523.03;4985862;28;20214;-56
2023/11/02 03:53:53;;;;;;;1.40;1.40;;;;;;;14.60;88.76;96520.22;4985400;28;20093;-65
2023/11/02 03:56:54;;;;;;;1.17;1.17;;;;;;;14.65;88.45;96519.78;4985600;28;20058;-65
2023/11/02 03:59:48;;;;;;;1.27;1.27;;;;;;;14.83;86.05;96506.47;4995247;28;20060;-65
2023/11/02 04:02:31;;;;;;;1.20;1.20;;;;;;;14.69;86.00;96512.16;4986074;28;20077;-65
2023/11/02 04:05:10;;;;;;;1.30;1.30;;;;;;;14.77;84.69;96510.91;4985208;28;20081;-65
2023/11/02 04:07:49;;;;;;;1.30;1.30;;;;;;;14.84;83.63;96516.44;4985287;28;20069;-65
2023/11/02 04:10:22;;;;;;;1.35;1.35;;;;;;;14.85;83.56;96518.03;4985407;28;20054;-65
2023/11/02 04:13:28;;;;;;;1.20;1.20;;;;;;;14.96;82.79;96524.31;4983737;28;20062;-65
2023/11/02 04:15:54;;;;;;;1.30;1.30;;;;;;;14.78;83.22;96504.94;4983593;28;20429;-65
2023/11/02 04:18:21;;;;;;;1.20;1.20;;;;;;;14.87;83.99;96521.19;4983901;28;20050;-66
2023/11/02 04:20:51;;;;;;;1.30;1.30;;;;;;;14.91;84.12;96527.53;4985002;28;20069;-65
2023/11/02 04:23:20;;;;;;;1.10;1.10;;;;;;;14.95;84.68;96525.53;4984842;28;20060;-65
2023/11/02 04:25:47;;;;;;;1.38;1.38;;;;;;;14.74;84.27;96475.50;4984445;28;20058;-65
2023/11/02 04:28:14;;;;;;;1.40;1.40;;;;;;;14.97;83.27;96498.00;4985136;28;20054;-65
2023/11/02 04:30:41;;;;;;;1.20;1.20;;;;;;;15.10;83.57;96526.97;4984854;28;20050;-56
2023/11/02 04:33:08;;;;;;;1.30;1.30;;;;;;;14.81;83.56;96469.88;4997845;28;20121;-56
2023/11/02 04:35:36;;;;;;;1.50;1.50;;;;;;;15.05;82.84;96496.72;5004184;28;20053;-56
2023/11/02 04:38:06;;;;;;;1.48;1.48;;;;;;;15.23;83.52;96539.22;5004302;28;20085;-58
2023/11/02 04:40:34;;;;;;;1.27;1.27;;;;;;;15.14;84.98;96538.91;5003008;28;20078;-59
2023/11/02 04:43:02;;;;;;;1.23;1.23;;;;;;;15.26;84.30;96538.38;5004813;28;20056;-56
2023/11/02 04:45:29;;;;;;;1.20;1.20;;;;;;;15.08;84.75;96532.16;5004587;28;20069;-57
2023/11/02 04:47:57;;;;;;;1.30;1.30;;;;;;;14.57;86.23;96543.34;5004715;28;20062;-65
2023/11/02 04:50:24;;;;;;;1.38;1.38;;;;;;;14.91;85.65;96549.84;5002795;28;20149;-66
2023/11/02 04:52:52;;;;;;;1.30;1.30;;;;;;;14.94;84.41;96530.28;5004688;28;20053;-66
2023/11/02 04:55:19;;;;;;;1.38;1.38;;;;;;;14.98;84.25;96560.94;5004207;28;20065;-66
2023/11/02 04:57:46;;;;;;;1.23;1.23;;;;;;;14.76;83.50;96509.34;5004216;28;20050;-66
2023/11/02 05:00:13;;;;;;;1.20;1.20;;;;;;;15.11;82.78;96550.88;5002709;28;20054;-65
2023/11/02 05:02:40;;;;;;;1.40;1.40;;;;;;;14.71;81.54;96501.41;5004206;28;20524;-66
2023/11/02 05:05:08;;;;;;;1.30;1.30;;;;;;;15.01;81.44;96532.22;5004058;28;20045;-66
2023/11/02 05:07:34;;;;;;;1.45;1.45;;;;;;;15.16;81.56;96544.84;5004061;28;20145;-67
2023/11/02 05:10:03;;;;;;;1.45;1.45;;;;;;;15.12;80.92;96535.72;5002707;28;20077;-56
2023/11/02 05:12:30;;;;;;;1.38;1.38;;;;;;;15.23;80.87;96555.94;5003940;28;20528;-57
2023/11/02 05:14:57;;;;;;;1.33;1.33;;;;;;;14.70;80.78;96471.97;5003768;28;20447;-65
2023/11/02 05:17:24;;;;;;;1.30;1.30;;;;;;;15.26;80.87;96554.31;5006600;28;20813;-56
2023/11/02 05:19:51;;;;;;;1.50;1.50;;;;;;;15.26;80.42;96549.53;5008157;28;20091;-56
2023/11/02 05:22:17;;;;;;;1.50;1.50;;;;;;;15.33;79.76;96560.66;5008207;28;20053;-57
2023/11/02 05:24:44;;;;;;;1.40;1.40;;;;;;;15.34;79.11;96548.28;5006293;28;20046;-56
2023/11/02 05:27:11;;;;;;;1.20;1.20;;;;;;;15.42;78.06;96552.63;5007569;28;20053;-57
2023/11/02 05:29:37;;;;;;;1.30;1.30;;;;;;;15.44;77.20;96555.78;5008059;28;20120;-58
2023/11/02 05:32:04;;;;;;;1.40;1.40;;;;;;;15.60;76.56;96561.59;5007654;28;20053;-56
2023/11/02 05:34:31;;;;;;;1.40;1.40;;;;;;;15.66;76.33;96556.34;5007440;28;20054;-57
2023/11/02 05:36:58;;;;;;;1.60;1.60;;;;;;;15.71;76.08;96567.84;5006361;28;20481;-57
2023/11/02 05:39:25;;;;;;;1.50;1.50;;;;;;;15.82;75.53;96565.72;5006629;28;20742;-57
2023/11/02 05:41:51;;;;;;;1.50;1.50;;;;;;;15.85;75.49;96553.75;5007124;28;20045;-57
2023/11/02 05:44:18;;;;;;;1.40;1.40;;;;;;;15.97;75.22;96561.59;5004982;28;20124;-60
2023/11/02 05:46:45;;;;;;;1.45;1.45;;;;;;;15.15;74.53;96437.25;5002826;28;20042;-61
2023/11/02 05:49:12;;;;;;;1.60;1.60;;;;;;;15.76;75.42;96578.56;5005826;28;20046;-61
2023/11/02 05:51:38;;;;;;;1.40;1.40;;;;;;;14.77;74.69;96388.25;4997875;28;20062;-57
2023/11/02 05:54:05;;;;;;;1.50;1.50;;;;;;;15.51;74.65;96488.72;5003947;28;20629;-64
2023/11/02 05:56:32;;;;;;;1.50;1.50;;;;;;;16.15;74.29;96564.97;5005163;28;20053;-65
2023/11/02 05:58:59;;;;;;;1.40;1.40;;;;;;;15.78;74.17;96517.53;5005171;28;20463;-59
2023/11/02 06:01:25;;;;;;;1.60;1.60;;;;;;;15.65;73.96;96544.38;4998813;28;20573;-68
2023/11/02 06:03:52;;;;;;;1.50;1.50;;;;;;;15.61;74.20;96476.63;5007269;28;20042;-58
2023/11/02 06:06:20;;;;;;;1.60;1.60;;;;;;;16.26;73.79;96579.59;5006292;28;20053;-58
2023/11/02 06:08:47;;;;;;;1.50;1.50;;;;;;;15.62;74.15;96455.88;5005499;28;20077;-68
2023/11/02 06:11:14;;;;;;;1.60;1.60;;;;;;;16.33;73.11;96554.34;5005041;28;20153;-68
2023/11/02 06:13:41;;;;;;;1.73;1.73;;;;;;;16.41;73.50;96566.22;5007010;28;20092;-58
2023/11/02 06:16:09;;;;;;;1.80;1.80;;;;;;;15.79;72.99;96477.19;5006520;28;20057;-59
2023/11/02 06:18:36;;;;;;;1.48;1.48;;;;;;;16.48;73.03;96585.72;4998262;28;20050;-68
2023/11/02 06:21:03;;;;;;;1.70;1.70;;;;;;;16.37;73.17;96580.25;5006585;28;20439;-58
2023/11/02 06:23:30;;;;;;;1.60;1.60;;;;;;;16.28;73.75;96582.75;5005466;28;20143;-68
2023/11/02 06:25:57;;;;;;;1.65;1.65;;;;;;;16.36;73.48;96581.44;5005592;28;20050;-59
2023/11/02 06:28:24;;;;;;;1.73;1.73;;;;;;;16.53;73.04;96576.88;4991397;28;20088;-59
2023/11/02 06:30:51;;;;;;;1.60;1.60;;;;;;;16.58;72.69;96573.63;4989477;28;20045;-58
2023/11/02 06:33:24;;;;;;;1.65;1.65;;;;;;;16.77;72.05;96572.16;5005240;28;20054;-68
2023/11/02 06:35:51;;;;;;;1.67;1.67;;;;;;;15.73;71.44;96406.28;5004497;28;20554;-68
2023/11/02 06:38:21;;;;;;;1.67;1.67;;;;;;;16.92;71.46;96581.91;5002844;28;20140;-65
2023/11/02 06:40:48;;;;;;;1.75;1.75;;;;;;;16.88;71.36;96569.97;5004003;28;20062;-62
2023/11/02 06:43:15;;;;;;;1.60;1.60;;;;;;;16.85;71.05;96559.63;4966492;28;20248;-64
2023/11/02 06:45:42;;;;;;;1.50;1.50;;;;;;;16.55;70.96;96510.13;4969931;28;20497;-65
2023/11/02 06:48:08;;;;;;;1.70;1.70;;;;;;;17.07;70.81;96583.28;5005761;28;20184;-60
2023/11/02 06:50:35;;;;;;;1.80;1.80;;;;;;;17.15;69.88;96551.94;5005143;28;20807;-65
2023/11/02 06:53:02;;;;;;;1.55;1.55;;;;;;;16.64;68.88;96527.94;5005323;28;20054;-66
2023/11/02 06:55:29;;;;;;;1.83;1.83;;;;;;;16.85;70.01;96568.03;5005263;28;20129;-58
2023/11/02 06:57:56;;;;;;;1.77;1.77;;;;;;;16.11;69.78;96452.44;4987451;28;20472;-63
2023/11/02 07:00:23;;;;;;;1.70;1.70;;;;;;;16.88;70.31;96564.38;4986701;28;20133;-67
2023/11/02 07:02:50;;;;;;;1.60;1.60;;;;;;;14.84;70.34;96245.97;5002086;28;20042;-64
2023/11/02 07:05:17;;;;;;;1.50;1.50;;;;;;;16.94;69.70;96565.47;4999720;28;20054;-68
2023/11/02 07:07:48;;;;;;;1.50;1.50;;;;;;;16.96;69.60;96566.63;5003951;28;20046;-64
2023/11/02 07:10:16;;;;;;;1.60;1.60;;;;;;;15.94;69.42;96425.53;5003008;28;20053;-66
2023/11/02 07:12:43;;;;;;;1.60;1.60;;;;;;;16.84;69.50;96566.44;5005181;28;20060;-64
2023/11/02 07:15:11;;;;;;;1.65;1.65;;;;;;;16.54;69.31;96517.75;5004036;28;20084;-59
2023/11/02 07:17:38;;;;;;;1.50;1.50;;;;;;;16.44;69.71;96546.63;4997003;28;20113;-58
2023/11/02 07:20:06;;;;;;;1.60;1.60;;;;;;;16.29;71.60;96562.00;4996462;28;20064;-59
2023/11/02 07:22:32;;;;;;;1.60;1.60;;;;;;;16.68;70.65;96549.50;4998917;28;20085;-68
2023/11/02 07:25:01;;;;;;;1.60;1.60;;;;;;;16.79;69.71;96547.34;5005403;28;20129;-69
2023/11/02 07:27:28;;;;;;;1.70;1.70;;;;;;;15.96;69.31;96389.59;5002239;28;20089;-64
2023/11/02 07:29:55;;;;;;;1.60;1.60;;;;;;;16.87;68.94;96530.00;5007727;28;20053;-62
2023/11/02 07:32:22;;;;;;;1.50;1.50;;;;;;;16.91;69.01;96518.78;4999860;28;20054;-63
2023/11/02 07:34:49;;;;;;;1.55;1.55;;;;;;;16.97;69.27;96528.25;4988807;28;20156;-66
2023/11/02 07:37:15;;;;;;;1.70;1.70;;;;;;;16.88;68.85;96520.41;4993459;28;20054;-63
2023/11/02 07:39:43;;;;;;;1.50;1.50;;;;;;;16.75;68.77;96504.63;5002870;28;20058;-62
2023/11/02 07:42:09;;;;;;;1.60;1.60;;;;;;;14.88;69.36;96227.19;5003676;28;20041;-58
2023/11/02 07:44:36;;;;;;;1.67;1.67;;;;;;;16.54;69.42;96492.56;4994515;28;20096;-63
2023/11/02 07:47:03;;;;;;;1.80;1.80;;;;;;;16.75;69.21;96513.03;5001319;28;20481;-67
2023/11/02 07:49:30;;;;;;;1.60;1.60;;;;;;;16.90;69.06;96522.78;4999847;28;20053;-65
2023/11/02 07:51:57;;;;;;;1.70;1.70;;;;;;;16.37;69.29;96453.66;4999570;28;20513;-56
2023/11/02 07:54:23;;;;;;;1.70;1.70;;;;;;;16.88;69.15;96528.81;5016152;28;20465;-56
2023/11/02 07:56:50;;;;;;;1.60;1.60;;;;;;;16.77;68.90;96507.81;5013465;28;20056;-56
2023/11/02 07:59:17;;;;;;;1.70;1.70;;;;;;;16.67;69.03;96476.00;5003468;28;20057;-66
2023/11/02 08:01:44;;;;;;;1.40;1.40;;;;;;;16.82;69.57;96532.50;5004329;28;20054;-57
2023/11/02 08:04:11;;;;;;;1.60;1.60;;;;;;;16.03;69.88;96420.22;5004740;28;20058;-60
2023/11/02 08:06:37;;;;;;;1.73;1.73;;;;;;;16.63;70.62;96526.38;5004115;28;20064;-57
2023/11/02 08:09:04;;;;;;;1.80;1.80;;;;;;;16.56;70.32;96481.75;4989108;28;20054;-64
2023/11/02 08:11:38;;;;;;;1.60;1.60;;;;;;;16.47;70.46;96487.06;4987328;28;20089;-58
2023/11/02 08:14:05;;;;;;;1.70;1.70;;;;;;;16.67;71.14;96531.94;5014240;28;20054;-59
2023/11/02 08:16:32;;;;;;;1.60;1.60;;;;;;;16.79;70.71;96527.78;4994056;28;20727;-64
2023/11/02 08:18:59;;;;;;;1.45;1.45;;;;;;;16.95;70.61;96525.09;5008319;28;20413;-63
2023/11/02 08:21:26;;;;;;;1.58;1.58;;;;;;;16.91;70.63;96479.59;5007979;28;20076;-61
2023/11/02 08:23:52;;;;;;;1.80;1.80;;;;;;;16.92;70.08;96447.59;5000905;28;20471;-64
2023/11/02 08:26:23;;;;;;;1.73;1.73;;;;;;;17.38;69.44;96509.16;4998395;28;20160;-64
2023/11/02 08:28:53;;;;;;;1.48;1.48;;;;;;;17.14;69.41;96493.59;5006852;28;20064;-61
2023/11/02 08:31:28;;;;;;;1.80;1.80;;;;;;;17.63;68.60;96526.31;5000729;28;20082;-61
2023/11/02 08:33:58;;;;;;;1.88;1.88;;;;;;;17.29;68.14;96466.94;5003045;28;20129;-68
2023/11/02 08:36:29;;;;;;;1.90;1.90;;;;;;;17.43;68.05;96483.47;5001842;28;20532;-69
2023/11/02 08:38:55;;;;;;;1.73;1.73;;;;;;;17.51;67.79;96482.94;5003283;28;20057;-60
2023/11/02 08:41:24;;;;;;;1.60;1.60;;;;;;;17.97;67.42;96504.44;5001797;28;20054;-68
2023/11/02 08:43:51;;;;;;;1.83;1.83;;;;;;;18.21;66.74;96499.53;5004021;28;20460;-61
2023/11/02 08:46:19;;;;;;;1.80;1.80;;;;;;;18.36;66.61;96500.78;5002385;28;20046;-67
2023/11/02 08:48:47;;;;;;;1.80;1.80;;;;;;;18.34;64.60;96464.78;5002469;28;20053;-69
2023/11/02 08:51:16;;;;;;;1.70;1.70;;;;;;;18.42;64.45;96480.25;5001988;28;20111;-69
2023/11/02 08:53:43;;;;;;;1.90;1.90;;;;;;;18.25;65.44;96489.81;4999927;28;20103;-66
2023/11/02 08:56:11;;;;;;;1.67;1.67;;;;;;;18.44;65.28;96491.03;4998141;28;20105;-60
2023/11/02 08:58:46;;;;;;;1.70;1.70;;;;;;;18.33;65.07;96499.66;4994960;28;20056;-61
2023/11/02 09:01:26;;;;;;;2.17;2.17;;;;;;;18.16;65.36;96514.06;5000622;28;20115;-69
2023/11/02 09:03:55;;;;;;;1.90;1.90;;;;;;;17.91;66.47;96494.94;5000119;28;20100;-60
2023/11/02 09:06:25;;;;;;;1.88;1.88;;;;;;;17.78;66.68;96460.41;5003148;28;20481;-60
2023/11/02 09:08:56;;;;;;;1.80;1.80;;;;;;;17.78;66.37;96454.81;5003244;28;20184;-65
2023/11/02 09:11:24;;;;;;;1.60;1.60;;;;;;;17.90;66.97;96485.75;4993911;28;20154;-69
2023/11/02 09:13:56;;;;;;;1.80;1.80;;;;;;;16.93;66.84;96309.31;5003155;28;20041;-63
2023/11/02 09:16:23;;;;;;;1.80;1.80;;;;;;;17.80;66.71;96461.53;5001919;28;20061;-68
2023/11/02 09:18:51;;;;;;;1.85;1.85;;;;;;;17.69;66.23;96446.16;5003500;28;20064;-67
2023/11/02 09:21:18;;;;;;;2.00;2.00;;;;;;;18.20;66.12;96458.69;5017851;28;20121;-61
2023/11/02 09:23:46;;;;;;;1.63;1.63;;;;;;;17.94;64.48;96362.38;5003292;28;20046;-60
2023/11/02 09:26:12;;;;;;;1.90;1.90;;;;;;;18.19;64.16;96413.06;5002734;28;20046;-61
2023/11/02 09:28:39;;;;;;;2.00;2.00;;;;;;;18.88;63.49;96440.66;5003676;28;20509;-62
2023/11/02 09:31:07;;;;;;;1.90;1.90;;;;;;;19.20;61.77;96437.84;5003176;28;20045;-68
2023/11/02 09:33:34;;;;;;;2.10;2.10;;;;;;;18.75;60.96;96305.09;5003769;28;20045;-61
2023/11/02 09:36:01;;;;;;;2.10;2.10;;;;;;;19.71;60.53;96424.81;5001567;28;20665;-68
2023/11/02 09:38:27;;;;;;;1.90;1.90;;;;;;;19.74;60.20;96403.47;5003061;28;20048;-68
2023/11/02 09:40:54;;;;;;;2.05;2.05;;;;;;;20.10;59.05;96426.47;5003147;28;20049;-68
2023/11/02 09:43:22;;;;;;;1.80;1.80;;;;;;;19.62;60.17;96378.94;5001685;28;20053;-61
2023/11/02 09:45:48;;;;;;;2.20;2.20;;;;;;;19.78;60.86;96426.63;5003203;28;20050;-61
2023/11/02 09:48:16;;;;;;;1.85;1.85;;;;;;;19.68;60.99;96413.69;5003783;28;20424;-61
2023/11/02 09:50:43;;;;;;;1.92;1.92;;;;;;;20.01;60.27;96395.44;2906536;28;10001580;-61
2023/11/02 09:53:10;;;;;;;1.88;1.88;;;;;;;19.91;60.58;96402.16;4998643;28;20141;-61
2023/11/02 09:55:40;;;;;;;1.80;1.80;;;;;;;19.53;61.34;96397.22;4983934;28;20054;-69
2023/11/02 09:58:08;;;;;;;1.80;1.80;;;;;;;18.82;62.63;96335.78;5000432;28;20049;-67
2023/11/02 10:00:35;;;;;;;1.67;1.67;;;;;;;19.28;62.74;96394.28;4983480;28;20062;-61
2023/11/02 10:03:02;;;;;;;1.90;1.90;;;;;;;19.62;61.74;96390.94;4985547;28;20066;-67
2023/11/02 10:05:30;;;;;;;1.80;1.80;;;;;;;19.87;60.80;96390.22;5003849;28;20453;-62
2023/11/02 10:07:58;;;;;;;1.90;1.90;;;;;;;19.65;59.59;96319.03;5004096;28;20065;-61
2023/11/02 10:10:30;;;;;;;2.05;2.05;;;;;;;20.51;58.07;96379.38;5003581;28;20050;-68
2023/11/02 10:12:58;;;;;;;1.85;1.85;;;;;;;19.20;61.56;96375.25;5003674;28;20057;-69
2023/11/02 10:15:25;;;;;;;1.85;1.85;;;;;;;18.27;65.18;96363.22;5000341;28;20332;-61
2023/11/02 10:17:52;;;;;;;1.85;1.85;;;;;;;18.49;63.01;96269.75;5003037;28;20081;-68
2023/11/02 10:20:19;;;;;;;1.80;1.80;;;;;;;19.50;61.90;96372.84;5003815;28;20063;-62
2023/11/02 10:23:03;;;;;;;1.83;1.83;;;;;;;19.82;60.55;96359.88;4987089;28;20045;-61
2023/11/02 10:25:30;;;;;;;1.90;1.90;;;;;;;19.41;61.13;96330.53;5003469;28;20046;-61
2023/11/02 10:27:58;;;;;;;2.00;2.00;;;;;;;19.70;61.15;96364.22;5004063;28;20072;-61
2023/11/02 10:30:25;;;;;;;1.88;1.88;;;;;;;19.84;61.33;96363.03;4824802;28;5001943;-67
2023/11/02 10:32:52;;;;;;;2.00;2.00;;;;;;;19.51;61.84;96363.16;5020159;28;20496;-68
2023/11/02 10:35:19;;;;;;;1.80;1.80;;;;;;;19.68;61.97;96360.28;5006388;28;20049;-68
2023/11/02 10:37:49;;;;;;;1.90;1.90;;;;;;;19.73;61.62;96349.25;5006228;28;20132;-68
2023/11/02 10:40:16;;;;;;;1.90;1.90;;;;;;;19.46;61.68;96304.72;5005825;28;20053;-68
2023/11/02 10:42:44;;;;;;;1.95;1.95;;;;;;;19.98;61.45;96334.47;5004706;28;20065;-68
2023/11/02 10:45:14;;;;;;;1.98;1.98;;;;;;;20.25;61.18;96332.81;5004277;28;20096;-62
2023/11/02 10:47:42;;;;;;;2.00;2.00;;;;;;;20.08;61.24;96322.09;5005799;28;20141;-61
2023/11/02 10:50:11;;;;;;;1.90;1.90;;;;;;;19.76;62.21;96354.00;5006047;28;20466;-62
2023/11/02 10:52:54;;;;;;;1.73;1.73;;;;;;;19.83;62.63;96327.69;5004784;28;20086;-68
2023/11/02 10:55:31;;;;;;;2.17;2.17;;;;;;;20.14;61.42;96331.59;4996276;28;20058;-68
2023/11/02 10:58:01;;;;;;;1.88;1.88;;;;;;;18.99;64.99;96302.84;4985049;28;20065;-67
2023/11/02 11:00:32;;;;;;;1.90;1.90;;;;;;;19.30;64.37;96307.59;4986159;28;20456;-61
2023/11/02 11:02:59;;;;;;;1.90;1.90;;;;;;;19.99;62.54;96305.09;4986543;28;20611;-69
2023/11/02 11:05:27;;;;;;;2.08;2.08;;;;;;;20.34;60.86;96270.25;4986006;28;20141;-68
2023/11/02 11:08:02;;;;;;;1.90;1.90;;;;;;;20.49;61.15;96285.41;5005489;28;20070;-67
2023/11/02 11:10:32;;;;;;;2.00;2.00;;;;;;;20.57;60.55;96297.97;5005785;28;20053;-68
2023/11/02 11:13:00;;;;;;;1.70;1.70;;;;;;;19.81;60.85;96201.66;5005718;28;20072;-62
2023/11/02 11:15:28;;;;;;;2.03;2.03;;;;;;;20.53;60.16;96269.19;5004739;28;20552;-69
2023/11/02 11:17:55;;;;;;;2.00;2.00;;;;;;;19.88;61.38;96260.47;5005352;28;20053;-68
2023/11/02 11:20:23;;;;;;;1.90;1.90;;;;;;;20.11;62.19;96256.50;5005479;28;20085;-63
2023/11/02 11:22:51;;;;;;;1.95;1.95;;;;;;;20.12;61.02;96204.66;5005164;28;20050;-68
2023/11/02 11:25:18;;;;;;;2.00;2.00;;;;;;;19.91;63.47;96267.22;5005276;28;20049;-68
2023/11/02 11:27:47;;;;;;;2.10;2.10;;;;;;;19.64;64.21;96270.47;5005411;28;20056;-61
2023/11/02 11:30:20;;;;;;;1.90;1.90;;;;;;;19.93;63.58;96265.53;5004790;28;20046;-62
2023/11/02 11:32:48;;;;;;;1.90;1.90;;;;;;;20.08;63.21;96268.66;5003331;28;20060;-63
2023/11/02 11:35:18;;;;;;;1.85;1.85;;;;;;;18.32;62.23;95967.34;5005125;28;20045;-61
2023/11/02 11:37:58;;;;;;;2.05;2.05;;;;;;;18.91;65.03;96190.00;5003421;28;20516;-62
2023/11/02 11:40:26;;;;;;;1.80;1.80;;;;;;;19.53;65.10;96259.56;5004572;28;20551;-69
2023/11/02 11:42:58;;;;;;;1.88;1.88;;;;;;;19.70;64.70;96260.25;5003687;28;20060;-68
2023/11/02 11:45:31;;;;;;;2.05;2.05;;;;;;;20.20;62.97;96251.81;5004162;28;20053;-68
2023/11/02 11:48:11;;;;;;;2.00;2.00;;;;;;;20.50;61.50;96265.25;5003520;28;20516;-61
2023/11/02 11:50:44;;;;;;;1.90;1.90;;;;;;;20.81;60.50;96256.94;5004440;28;20506;-62
2023/11/02 11:53:20;;;;;;;2.00;2.00;;;;;;;19.99;62.65;96246.06;5001559;28;20053;-68